createdAt,value
2023-02-06T00:06:54.658Z,2.20
2023-02-06T00:17:01.054Z,2.17
2023-02-06T00:27:04.842Z,1.57
2023-02-06T00:37:10.378Z,1.50
2023-02-06T00:47:14.253Z,1.40
2023-02-06T00:57:19.514Z,1.93
2023-02-06T01:07:23.156Z,2.20
2023-02-06T01:17:28.388Z,1.43
2023-02-06T01:27:32.308Z,1.47
2023-02-06T01:37:37.968Z,1.93
2023-02-06T01:47:41.594Z,1.30
2023-02-06T01:57:46.726Z,1.97
2023-02-06T02:08:00.965Z,1.50
2023-02-06T02:18:22.565Z,1.87
2023-02-06T02:29:42.162Z,0.93
2023-02-06T02:39:56.980Z,1.17
2023-02-06T02:50:04.266Z,2.27
2023-02-06T03:00:11.613Z,1.73
2023-02-06T03:10:21.829Z,2.07
2023-02-06T03:20:30.123Z,1.63
2023-02-06T03:30:35.700Z,1.67
2023-02-06T03:40:42.899Z,1.43
2023-02-06T03:50:50.601Z,1.40
2023-02-06T04:00:55.804Z,1.60
2023-02-06T04:10:59.688Z,1.53
2023-02-06T04:21:08.289Z,1.23
2023-02-06T04:31:12.109Z,1.73
2023-02-06T04:41:17.140Z,1.00
2023-02-06T04:51:20.828Z,1.33
2023-02-06T05:01:26.202Z,1.80
2023-02-06T05:11:29.950Z,1.57
2023-02-06T05:21:34.942Z,2.00
2023-02-06T05:31:38.669Z,1.33
2023-02-06T05:41:43.732Z,1.93
2023-02-06T05:51:47.515Z,1.63
2023-02-06T06:01:52.680Z,1.47
2023-02-06T06:11:56.424Z,1.97
2023-02-06T06:22:01.470Z,0.93
2023-02-06T06:32:06.254Z,1.50
2023-02-06T06:42:11.523Z,1.30
2023-02-06T06:52:24.332Z,1.70
2023-02-06T07:02:30.512Z,0.90
2023-02-06T07:12:34.755Z,1.43
2023-02-06T07:22:39.893Z,1.70
2023-02-06T07:32:43.512Z,1.70
2023-02-06T07:42:48.570Z,1.30
2023-02-06T07:52:52.224Z,2.00
2023-02-06T08:02:57.278Z,1.40
2023-02-06T08:13:01.062Z,1.60
2023-02-06T08:23:08.150Z,0.80
2023-02-06T08:33:11.797Z,0.63
2023-02-06T08:43:16.841Z,1.10
2023-02-06T08:53:20.412Z,0.53
2023-02-06T09:03:27.001Z,1.50
2023-02-06T09:13:31.700Z,0.70
2023-02-06T09:23:36.939Z,1.20
2023-02-06T09:33:41.262Z,0.40
2023-02-06T09:43:52.320Z,0.50
2023-02-06T09:54:08.640Z,1.03
2023-02-06T10:04:41.599Z,0.90
2023-02-06T10:14:49.914Z,0.70
2023-02-06T10:25:22.186Z,1.43
2023-02-06T10:35:48.961Z,0.53
2023-02-06T10:46:06.602Z,1.60
2023-02-06T10:56:14.524Z,0.70
2023-02-06T11:06:22.092Z,0.60
2023-02-06T11:16:28.703Z,0.50
2023-02-06T11:26:34.051Z,0.90
2023-02-06T11:36:40.898Z,0.63
2023-02-06T11:46:46.063Z,0.40
2023-02-06T11:57:04.222Z,0.70
2023-02-06T12:07:18.117Z,0.70
2023-02-06T12:17:29.072Z,0.43
2023-02-06T12:27:39.528Z,0.70
2023-02-06T12:37:49.844Z,0.83
2023-02-06T12:48:00.442Z,0.60
2023-02-06T12:58:05.872Z,0.80
2023-02-06T13:08:15.099Z,0.43
2023-02-06T13:19:02.645Z,0.50
2023-02-06T13:29:25.786Z,1.17
2023-02-06T13:39:34.738Z,1.43
2023-02-06T13:50:18.051Z,0.60
2023-02-06T14:00:25.366Z,0.57
2023-02-06T14:11:04.791Z,0.77
2023-02-06T14:21:24.870Z,0.30
2023-02-06T14:31:48.477Z,1.07
2023-02-06T14:41:52.719Z,0.87
2023-02-06T14:51:58.142Z,0.23
2023-02-06T15:02:14.984Z,0.43
2023-02-06T15:12:26.541Z,0.47
2023-02-06T15:22:31.902Z,0.27
2023-02-06T15:32:40.286Z,0.30
2023-02-06T15:42:44.192Z,0.40
2023-02-06T15:52:49.449Z,0.40
2023-02-06T16:02:57.953Z,0.23
2023-02-06T16:13:09.622Z,0.40
2023-02-06T16:23:23.877Z,0.83
2023-02-06T16:33:35.501Z,0.77
2023-02-06T16:43:39.444Z,0.60
2023-02-06T16:53:45.497Z,0.40
2023-02-06T17:03:50.181Z,0.40
2023-02-06T17:13:55.253Z,0.67
2023-02-06T17:24:00.206Z,0.30
2023-02-06T17:34:05.234Z,0.50
2023-02-06T17:44:09.074Z,1.10
2023-02-06T17:54:14.520Z,0.73
2023-02-06T18:04:20.273Z,0.67
2023-02-06T18:14:25.372Z,1.13
2023-02-06T18:24:29.738Z,1.13
2023-02-06T18:34:36.265Z,0.47
2023-02-06T18:44:42.660Z,0.63
2023-02-06T18:54:48.771Z,1.10
2023-02-06T19:04:52.572Z,0.80
2023-02-06T19:14:58.764Z,0.57
2023-02-06T19:25:03.043Z,0.60
2023-02-06T19:35:09.148Z,0.67
2023-02-06T19:45:14.027Z,0.70
2023-02-06T19:55:19.600Z,0.90
2023-02-06T20:05:26.365Z,0.60
2023-02-06T20:15:32.254Z,0.97
2023-02-06T20:25:39.020Z,1.00
2023-02-06T20:35:45.796Z,0.70
2023-02-06T20:45:50.071Z,0.50
2023-02-06T20:55:55.491Z,1.17
2023-02-06T21:06:00.890Z,0.70
2023-02-06T21:16:06.926Z,0.47
2023-02-06T21:26:13.680Z,0.47
2023-02-06T21:36:21.196Z,0.70
2023-02-06T21:46:26.010Z,1.03
2023-02-06T21:56:32.047Z,0.30
2023-02-06T22:06:37.817Z,0.40
2023-02-06T22:16:46.392Z,0.67
2023-02-06T22:26:50.377Z,0.30
2023-02-06T22:36:55.946Z,0.50
2023-02-06T22:47:00.208Z,0.37
2023-02-06T22:57:05.730Z,0.30
2023-02-06T23:07:12.631Z,0.70
2023-02-06T23:17:18.019Z,0.70
2023-02-06T23:27:21.909Z,0.33
2023-02-06T23:37:27.068Z,0.40
2023-02-06T23:47:30.700Z,0.30
2023-02-06T23:57:37.474Z,0.40
